sensor_id;sensor_type;location;lat;lon;timestamp;pressure;altitude;pressure_sealevel;temperature;humidity
17072;BME280;7731;50.720;6.912;2023-03-25T00:01:48;98982.56;;;8.71;100.00
17072;BME280;7731;50.720;6.912;2023-03-25T00:04:18;98980.91;;;8.70;100.00
17072;BME280;7731;50.720;6.912;2023-03-25T00:06:56;98975.59;;;8.73;100.00
17072;BME280;7731;50.720;6.912;2023-03-25T00:09:27;98974.53;;;8.63;100.00
17072;BME280;7731;50.720;6.912;2023-03-25T00:11:57;98971.06;;;8.50;100.00
17072;BME280;7731;50.720;6.912;2023-03-25T00:14:28;98976.53;;;8.58;100.00
17072;BME280;7731;50.720;6.912;2023-03-25T00:16:59;98984.03;;;8.61;100.00
17072;BME280;7731;50.720;6.912;2023-03-25T00:19:29;98976.91;;;8.52;100.00
17072;BME280;7731;50.720;6.912;2023-03-25T00:22:04;98981.13;;;8.53;100.00
17072;BME280;7731;50.720;6.912;2023-03-25T00:24:35;98981.16;;;8.37;100.00
17072;BME280;7731;50.720;6.912;2023-03-25T00:27:05;98980.56;;;8.48;100.00
17072;BME280;7731;50.720;6.912;2023-03-25T00:29:36;98974.69;;;8.46;100.00
17072;BME280;7731;50.720;6.912;2023-03-25T00:32:07;98982.94;;;8.51;100.00
17072;BME280;7731;50.720;6.912;2023-03-25T00:34:38;98977.19;;;8.62;100.00
17072;BME280;7731;50.720;6.912;2023-03-25T00:37:16;98990.19;;;8.58;100.00
17072;BME280;7731;50.720;6.912;2023-03-25T00:39:48;98981.47;;;8.75;100.00
17072;BME280;7731;50.720;6.912;2023-03-25T00:42:18;98983.66;;;8.82;100.00
17072;BME280;7731;50.720;6.912;2023-03-25T00:44:53;98976.25;;;8.77;100.00
17072;BME280;7731;50.720;6.912;2023-03-25T00:47:23;98974.94;;;8.99;100.00
17072;BME280;7731;50.720;6.912;2023-03-25T00:49:54;98977.41;;;9.00;100.00
17072;BME280;7731;50.720;6.912;2023-03-25T00:52:27;98971.91;;;8.92;100.00
17072;BME280;7731;50.720;6.912;2023-03-25T00:55:00;98963.84;;;9.13;100.00
17072;BME280;7731;50.720;6.912;2023-03-25T00:57:31;98965.66;;;9.10;100.00
17072;BME280;7731;50.720;6.912;2023-03-25T01:00:03;98969.91;;;8.97;100.00
17072;BME280;7731;50.720;6.912;2023-03-25T01:02:37;98969.34;;;8.92;100.00
17072;BME280;7731;50.720;6.912;2023-03-25T01:05:09;98979.63;;;8.78;100.00
17072;BME280;7731;50.720;6.912;2023-03-25T01:07:43;98973.19;;;8.99;100.00
17072;BME280;7731;50.720;6.912;2023-03-25T01:10:16;98970.59;;;8.86;100.00
17072;BME280;7731;50.720;6.912;2023-03-25T01:12:46;98967.94;;;8.88;100.00
17072;BME280;7731;50.720;6.912;2023-03-25T01:15:17;98970.69;;;8.85;100.00
17072;BME280;7731;50.720;6.912;2023-03-25T01:17:48;98960.44;;;8.56;100.00
17072;BME280;7731;50.720;6.912;2023-03-25T01:20:18;98960.81;;;8.50;100.00
17072;BME280;7731;50.720;6.912;2023-03-25T01:22:51;98967.03;;;8.60;100.00
17072;BME280;7731;50.720;6.912;2023-03-25T01:25:22;98954.97;;;8.62;100.00
17072;BME280;7731;50.720;6.912;2023-03-25T01:27:52;98956.97;;;8.57;100.00
17072;BME280;7731;50.720;6.912;2023-03-25T01:30:22;98959.06;;;8.50;100.00
17072;BME280;7731;50.720;6.912;2023-03-25T01:32:53;98957.34;;;8.51;100.00
17072;BME280;7731;50.720;6.912;2023-03-25T01:35:24;98957.50;;;8.76;100.00
17072;BME280;7731;50.720;6.912;2023-03-25T01:37:57;98964.66;;;8.71;100.00
17072;BME280;7731;50.720;6.912;2023-03-25T01:40:29;98951.47;;;8.78;100.00
17072;BME280;7731;50.720;6.912;2023-03-25T01:42:59;98952.19;;;8.80;100.00
17072;BME280;7731;50.720;6.912;2023-03-25T01:45:31;98946.63;;;8.73;100.00
17072;BME280;7731;50.720;6.912;2023-03-25T01:48:09;98945.88;;;8.85;100.00
17072;BME280;7731;50.720;6.912;2023-03-25T01:50:48;98948.94;;;8.49;100.00
17072;BME280;7731;50.720;6.912;2023-03-25T01:53:26;98944.00;;;8.60;100.00
17072;BME280;7731;50.720;6.912;2023-03-25T01:56:00;98941.94;;;8.80;100.00
17072;BME280;7731;50.720;6.912;2023-03-25T01:58:34;98944.50;;;8.80;100.00
17072;BME280;7731;50.720;6.912;2023-03-25T02:01:06;98946.91;;;8.68;100.00
17072;BME280;7731;50.720;6.912;2023-03-25T02:03:39;98933.47;;;8.65;100.00
17072;BME280;7731;50.720;6.912;2023-03-25T02:06:18;98936.31;;;8.60;100.00
17072;BME280;7731;50.720;6.912;2023-03-25T02:08:58;98938.81;;;8.89;100.00
17072;BME280;7731;50.720;6.912;2023-03-25T02:11:28;98940.41;;;8.63;100.00
17072;BME280;7731;50.720;6.912;2023-03-25T02:14:04;98942.88;;;8.79;100.00
17072;BME280;7731;50.720;6.912;2023-03-25T02:16:47;98939.94;;;8.85;100.00
17072;BME280;7731;50.720;6.912;2023-03-25T02:19:58;98946.38;;;8.63;100.00
17072;BME280;7731;50.720;6.912;2023-03-25T02:23:11;98940.88;;;8.69;100.00
17072;BME280;7731;50.720;6.912;2023-03-25T02:26:24;98953.84;;;8.81;100.00
17072;BME280;7731;50.720;6.912;2023-03-25T02:29:10;98946.44;;;8.76;100.00
17072;BME280;7731;50.720;6.912;2023-03-25T02:31:55;98946.56;;;8.60;100.00
17072;BME280;7731;50.720;6.912;2023-03-25T02:35:07;98943.25;;;8.72;100.00
17072;BME280;7731;50.720;6.912;2023-03-25T02:38:28;98941.59;;;8.43;100.00
17072;BME280;7731;50.720;6.912;2023-03-25T02:41:12;98934.91;;;8.69;100.00
17072;BME280;7731;50.720;6.912;2023-03-25T02:43:54;98941.88;;;8.67;100.00
17072;BME280;7731;50.720;6.912;2023-03-25T02:46:28;98942.13;;;8.33;100.00
17072;BME280;7731;50.720;6.912;2023-03-25T02:49:04;98935.31;;;8.48;100.00
17072;BME280;7731;50.720;6.912;2023-03-25T02:51:47;98936.47;;;8.43;100.00
17072;BME280;7731;50.720;6.912;2023-03-25T02:54:26;98933.38;;;8.52;100.00
17072;BME280;7731;50.720;6.912;2023-03-25T02:57:02;98936.84;;;8.65;100.00
17072;BME280;7731;50.720;6.912;2023-03-25T02:59:35;98934.47;;;8.62;100.00
17072;BME280;7731;50.720;6.912;2023-03-25T03:02:09;98946.19;;;8.52;100.00
17072;BME280;7731;50.720;6.912;2023-03-25T03:04:48;98939.78;;;8.59;100.00
17072;BME280;7731;50.720;6.912;2023-03-25T03:07:24;98938.06;;;8.45;100.00
17072;BME280;7731;50.720;6.912;2023-03-25T03:10:12;98942.50;;;8.41;100.00
17072;BME280;7731;50.720;6.912;2023-03-25T03:13:16;98939.88;;;8.43;100.00
17072;BME280;7731;50.720;6.912;2023-03-25T03:15:59;98930.81;;;8.66;100.00
17072;BME280;7731;50.720;6.912;2023-03-25T03:18:46;98941.16;;;8.50;100.00
17072;BME280;7731;50.720;6.912;2023-03-25T03:21:31;98945.66;;;8.47;100.00
17072;BME280;7731;50.720;6.912;2023-03-25T03:24:13;98942.44;;;8.57;100.00
17072;BME280;7731;50.720;6.912;2023-03-25T03:26:57;98947.00;;;8.67;100.00
17072;BME280;7731;50.720;6.912;2023-03-25T03:29:35;98948.19;;;8.47;100.00
17072;BME280;7731;50.720;6.912;2023-03-25T03:32:11;98941.06;;;8.66;100.00
17072;BME280;7731;50.720;6.912;2023-03-25T03:34:47;98945.34;;;8.66;100.00
17072;BME280;7731;50.720;6.912;2023-03-25T03:37:27;98941.81;;;8.54;100.00
17072;BME280;7731;50.720;6.912;2023-03-25T03:40:20;98941.63;;;8.57;100.00
17072;BME280;7731;50.720;6.912;2023-03-25T03:42:57;98943.00;;;8.48;100.00
17072;BME280;7731;50.720;6.912;2023-03-25T03:45:35;98952.06;;;8.54;100.00
17072;BME280;7731;50.720;6.912;2023-03-25T03:48:13;98947.78;;;8.38;100.00
17072;BME280;7731;50.720;6.912;2023-03-25T03:50:51;98949.63;;;8.36;100.00
17072;BME280;7731;50.720;6.912;2023-03-25T03:53:29;98947.31;;;8.48;100.00
17072;BME280;7731;50.720;6.912;2023-03-25T03:56:07;98955.28;;;8.41;100.00
17072;BME280;7731;50.720;6.912;2023-03-25T03:58:43;98963.75;;;8.44;100.00
17072;BME280;7731;50.720;6.912;2023-03-25T04:01:25;98949.25;;;8.43;100.00
17072;BME280;7731;50.720;6.912;2023-03-25T04:04:02;98964.47;;;8.46;100.00
17072;BME280;7731;50.720;6.912;2023-03-25T04:06:38;98958.56;;;8.29;100.00
17072;BME280;7731;50.720;6.912;2023-03-25T04:09:18;98958.63;;;8.44;100.00
17072;BME280;7731;50.720;6.912;2023-03-25T04:11:59;98968.63;;;8.32;100.00
17072;BME280;7731;50.720;6.912;2023-03-25T04:14:36;98958.56;;;8.29;100.00
17072;BME280;7731;50.720;6.912;2023-03-25T04:17:07;98964.47;;;8.46;100.00
17072;BME280;7731;50.720;6.912;2023-03-25T04:19:38;98960.66;;;8.37;100.00
17072;BME280;7731;50.720;6.912;2023-03-25T04:22:08;98967.28;;;8.27;100.00
17072;BME280;7731;50.720;6.912;2023-03-25T04:24:40;98967.97;;;8.45;100.00
17072;BME280;7731;50.720;6.912;2023-03-25T04:27:11;98971.75;;;8.37;100.00
17072;BME280;7731;50.720;6.912;2023-03-25T04:29:44;98968.25;;;8.38;100.00
17072;BME280;7731;50.720;6.912;2023-03-25T04:32:15;98956.75;;;8.31;100.00
17072;BME280;7731;50.720;6.912;2023-03-25T04:34:46;98954.09;;;8.18;100.00
17072;BME280;7731;50.720;6.912;2023-03-25T04:37:16;98956.63;;;8.18;100.00
17072;BME280;7731;50.720;6.912;2023-03-25T04:39:46;98960.03;;;8.19;100.00
17072;BME280;7731;50.720;6.912;2023-03-25T04:42:16;98963.16;;;8.38;100.00
17072;BME280;7731;50.720;6.912;2023-03-25T04:44:49;98960.03;;;8.33;100.00
17072;BME280;7731;50.720;6.912;2023-03-25T04:47:23;98972.66;;;8.22;100.00
17072;BME280;7731;50.720;6.912;2023-03-25T04:49:57;98963.16;;;8.24;100.00
17072;BME280;7731;50.720;6.912;2023-03-25T04:52:28;98959.03;;;8.36;100.00
17072;BME280;7731;50.720;6.912;2023-03-25T04:55:00;98964.88;;;8.23;100.00
17072;BME280;7731;50.720;6.912;2023-03-25T04:57:33;98957.66;;;8.16;100.00
17072;BME280;7731;50.720;6.912;2023-03-25T05:00:11;98962.41;;;8.22;100.00
17072;BME280;7731;50.720;6.912;2023-03-25T05:02:46;98957.09;;;8.11;100.00
17072;BME280;7731;50.720;6.912;2023-03-25T05:05:20;98959.88;;;8.22;100.00
17072;BME280;7731;50.720;6.912;2023-03-25T05:07:53;98965.69;;;8.10;100.00
17072;BME280;7731;50.720;6.912;2023-03-25T05:10:26;98964.59;;;8.14;100.00
17072;BME280;7731;50.720;6.912;2023-03-25T05:13:00;98963.31;;;8.07;100.00
17072;BME280;7731;50.720;6.912;2023-03-25T05:15:36;98955.84;;;8.18;100.00
17072;BME280;7731;50.720;6.912;2023-03-25T05:18:11;98960.13;;;8.17;100.00
17072;BME280;7731;50.720;6.912;2023-03-25T05:20:46;98965.25;;;8.17;100.00
17072;BME280;7731;50.720;6.912;2023-03-25T05:23:18;98959.47;;;8.14;100.00
17072;BME280;7731;50.720;6.912;2023-03-25T05:25:52;98965.78;;;8.08;100.00
17072;BME280;7731;50.720;6.912;2023-03-25T05:28:23;98972.16;;;8.15;100.00
17072;BME280;7731;50.720;6.912;2023-03-25T05:30:56;98963.50;;;8.18;100.00
17072;BME280;7731;50.720;6.912;2023-03-25T05:33:29;98970.38;;;8.32;100.00
17072;BME280;7731;50.720;6.912;2023-03-25T05:35:59;98964.66;;;7.98;100.00
17072;BME280;7731;50.720;6.912;2023-03-25T05:38:32;98966.94;;;8.02;100.00
17072;BME280;7731;50.720;6.912;2023-03-25T05:41:03;98963.41;;;8.05;100.00
17072;BME280;7731;50.720;6.912;2023-03-25T05:43:37;98964.19;;;7.91;100.00
17072;BME280;7731;50.720;6.912;2023-03-25T05:46:18;98962.13;;;8.12;100.00
17072;BME280;7731;50.720;6.912;2023-03-25T05:48:49;98955.00;;;8.17;100.00
17072;BME280;7731;50.720;6.912;2023-03-25T05:51:25;98954.28;;;8.30;100.00
17072;BME280;7731;50.720;6.912;2023-03-25T05:53:58;98962.38;;;8.52;100.00
17072;BME280;7731;50.720;6.912;2023-03-25T05:56:29;98969.22;;;8.66;100.00
17072;BME280;7731;50.720;6.912;2023-03-25T05:58:59;98951.28;;;8.81;100.00
17072;BME280;7731;50.720;6.912;2023-03-25T06:01:35;98960.16;;;8.61;100.00
17072;BME280;7731;50.720;6.912;2023-03-25T06:04:09;98953.13;;;8.64;100.00
17072;BME280;7731;50.720;6.912;2023-03-25T06:06:40;98965.31;;;8.46;100.00
17072;BME280;7731;50.720;6.912;2023-03-25T06:09:10;98961.88;;;8.31;100.00
17072;BME280;7731;50.720;6.912;2023-03-25T06:11:41;98960.59;;;8.24;100.00
17072;BME280;7731;50.720;6.912;2023-03-25T06:14:11;98963.91;;;8.55;100.00
17072;BME280;7731;50.720;6.912;2023-03-25T06:16:44;98951.03;;;8.56;100.00
17072;BME280;7731;50.720;6.912;2023-03-25T06:19:16;98953.97;;;8.65;100.00
17072;BME280;7731;50.720;6.912;2023-03-25T06:21:46;98954.22;;;8.46;100.00
17072;BME280;7731;50.720;6.912;2023-03-25T06:24:18;98967.66;;;8.64;100.00
17072;BME280;7731;50.720;6.912;2023-03-25T06:26:48;98967.19;;;8.86;100.00
17072;BME280;7731;50.720;6.912;2023-03-25T06:29:19;98969.75;;;8.71;100.00
17072;BME280;7731;50.720;6.912;2023-03-25T06:31:52;98966.50;;;8.69;100.00
17072;BME280;7731;50.720;6.912;2023-03-25T06:34:24;98966.31;;;9.00;100.00
17072;BME280;7731;50.720;6.912;2023-03-25T06:36:56;98967.13;;;9.15;99.40
17072;BME280;7731;50.720;6.912;2023-03-25T06:39:26;98968.44;;;8.93;100.00
17072;BME280;7731;50.720;6.912;2023-03-25T06:41:58;98959.38;;;9.02;100.00
17072;BME280;7731;50.720;6.912;2023-03-25T06:44:30;98965.66;;;9.10;100.00
17072;BME280;7731;50.720;6.912;2023-03-25T06:47:03;98960.00;;;9.05;100.00
17072;BME280;7731;50.720;6.912;2023-03-25T06:49:34;98960.28;;;9.01;100.00
17072;BME280;7731;50.720;6.912;2023-03-25T06:52:07;98968.41;;;9.22;100.00
17072;BME280;7731;50.720;6.912;2023-03-25T06:54:38;98977.75;;;9.08;100.00
17072;BME280;7731;50.720;6.912;2023-03-25T06:57:08;98984.56;;;8.81;100.00
17072;BME280;7731;50.720;6.912;2023-03-25T06:59:39;98971.78;;;8.66;100.00
17072;BME280;7731;50.720;6.912;2023-03-25T07:02:14;98956.94;;;8.28;100.00
17072;BME280;7731;50.720;6.912;2023-03-25T07:04:44;98979.78;;;8.31;100.00
17072;BME280;7731;50.720;6.912;2023-03-25T07:07:14;98968.84;;;8.44;100.00
17072;BME280;7731;50.720;6.912;2023-03-25T07:09:49;98978.00;;;8.48;100.00
17072;BME280;7731;50.720;6.912;2023-03-25T07:12:22;98977.16;;;8.47;100.00
17072;BME280;7731;50.720;6.912;2023-03-25T07:14:54;98972.16;;;8.60;100.00
17072;BME280;7731;50.720;6.912;2023-03-25T07:17:28;98971.75;;;8.37;100.00
17072;BME280;7731;50.720;6.912;2023-03-25T07:20:00;98982.41;;;8.60;100.00
17072;BME280;7731;50.720;6.912;2023-03-25T07:22:30;98976.34;;;8.61;100.00
17072;BME280;7731;50.720;6.912;2023-03-25T07:25:01;98986.31;;;8.66;100.00
17072;BME280;7731;50.720;6.912;2023-03-25T07:27:32;98994.00;;;8.51;100.00
17072;BME280;7731;50.720;6.912;2023-03-25T07:30:08;98988.06;;;8.65;100.00
17072;BME280;7731;50.720;6.912;2023-03-25T07:32:49;98998.13;;;8.54;100.00
17072;BME280;7731;50.720;6.912;2023-03-25T07:35:19;99000.00;;;8.36;100.00
17072;BME280;7731;50.720;6.912;2023-03-25T07:37:50;99001.34;;;8.13;100.00
17072;BME280;7731;50.720;6.912;2023-03-25T07:40:20;99002.59;;;8.05;100.00
17072;BME280;7731;50.720;6.912;2023-03-25T07:42:50;99001.00;;;7.89;100.00
17072;BME280;7731;50.720;6.912;2023-03-25T07:45:20;99004.78;;;7.81;100.00
17072;BME280;7731;50.720;6.912;2023-03-25T07:47:53;98995.88;;;7.89;100.00
17072;BME280;7731;50.720;6.912;2023-03-25T07:50:24;98996.94;;;8.15;100.00
17072;BME280;7731;50.720;6.912;2023-03-25T07:52:54;99021.97;;;8.10;100.00
17072;BME280;7731;50.720;6.912;2023-03-25T07:55:25;99041.81;;;7.90;100.00
17072;BME280;7731;50.720;6.912;2023-03-25T07:57:55;99031.44;;;8.08;100.00
17072;BME280;7731;50.720;6.912;2023-03-25T08:00:28;99037.53;;;8.21;100.00
17072;BME280;7731;50.720;6.912;2023-03-25T08:03:03;99043.22;;;7.80;100.00
17072;BME280;7731;50.720;6.912;2023-03-25T08:05:34;99032.50;;;7.89;100.00
17072;BME280;7731;50.720;6.912;2023-03-25T08:08:05;99031.44;;;8.08;100.00
17072;BME280;7731;50.720;6.912;2023-03-25T08:10:35;99036.97;;;8.16;100.00
17072;BME280;7731;50.720;6.912;2023-03-25T08:13:05;99039.44;;;8.48;100.00
17072;BME280;7731;50.720;6.912;2023-03-25T08:15:36;99047.13;;;8.76;100.00
17072;BME280;7731;50.720;6.912;2023-03-25T08:18:09;99043.19;;;8.85;100.00
17072;BME280;7731;50.720;6.912;2023-03-25T08:20:39;99050.78;;;9.16;100.00
17072;BME280;7731;50.720;6.912;2023-03-25T08:23:10;99048.94;;;9.18;100.00
17072;BME280;7731;50.720;6.912;2023-03-25T08:25:48;99032.69;;;11.89;88.69
17072;BME280;7731;50.720;6.912;2023-03-25T08:28:21;99027.91;;;14.40;67.45
17072;BME280;7731;50.720;6.912;2023-03-25T08:30:53;99036.78;;;14.68;62.13
17072;BME280;7731;50.720;6.912;2023-03-25T08:33:29;99029.25;;;15.76;60.70
17072;BME280;7731;50.720;6.912;2023-03-25T08:36:06;99036.34;;;15.54;55.90
17072;BME280;7731;50.720;6.912;2023-03-25T08:38:41;99038.00;;;14.22;61.15
17072;BME280;7731;50.720;6.912;2023-03-25T08:41:11;99040.22;;;13.18;66.11
17072;BME280;7731;50.720;6.912;2023-03-25T08:43:41;99039.06;;;13.11;68.84
17072;BME280;7731;50.720;6.912;2023-03-25T08:46:12;99041.59;;;13.45;67.65
17072;BME280;7731;50.720;6.912;2023-03-25T08:48:45;99038.44;;;14.69;61.82
17072;BME280;7731;50.720;6.912;2023-03-25T08:51:16;99041.16;;;15.78;58.24
17072;BME280;7731;50.720;6.912;2023-03-25T08:53:48;99034.72;;;16.21;56.91
17072;BME280;7731;50.720;6.912;2023-03-25T08:56:23;99029.50;;;16.88;52.54
17072;BME280;7731;50.720;6.912;2023-03-25T08:58:53;99029.56;;;17.24;49.32
17072;BME280;7731;50.720;6.912;2023-03-25T09:01:23;99024.03;;;17.73;49.13
17072;BME280;7731;50.720;6.912;2023-03-25T09:03:56;99038.94;;;16.22;51.93
17072;BME280;7731;50.720;6.912;2023-03-25T09:06:28;99036.78;;;17.03;50.66
17072;BME280;7731;50.720;6.912;2023-03-25T09:09:18;99043.50;;;15.11;53.66
17072;BME280;7731;50.720;6.912;2023-03-25T09:11:53;99044.44;;;15.80;52.89
17072;BME280;7731;50.720;6.912;2023-03-25T09:14:26;99050.75;;;15.37;52.21
17072;BME280;7731;50.720;6.912;2023-03-25T09:16:56;99052.19;;;15.10;51.89
17072;BME280;7731;50.720;6.912;2023-03-25T09:19:33;99048.69;;;15.31;51.81
17072;BME280;7731;50.720;6.912;2023-03-25T09:22:05;99034.69;;;16.41;49.61
17072;BME280;7731;50.720;6.912;2023-03-25T09:24:35;99028.56;;;17.53;46.30
17072;BME280;7731;50.720;6.912;2023-03-25T09:27:07;99044.28;;;18.50;44.52
17072;BME280;7731;50.720;6.912;2023-03-25T09:29:39;99035.56;;;16.59;46.37
17072;BME280;7731;50.720;6.912;2023-03-25T09:32:09;99033.16;;;16.48;46.66
17072;BME280;7731;50.720;6.912;2023-03-25T09:34:43;99037.66;;;15.19;51.01
17072;BME280;7731;50.720;6.912;2023-03-25T09:37:14;99044.78;;;13.81;58.09
17072;BME280;7731;50.720;6.912;2023-03-25T09:39:44;99055.09;;;13.14;58.47
17072;BME280;7731;50.720;6.912;2023-03-25T09:42:37;99048.19;;;13.26;61.40
17072;BME280;7731;50.720;6.912;2023-03-25T09:45:24;99056.06;;;12.57;63.14
17072;BME280;7731;50.720;6.912;2023-03-25T09:48:03;99061.06;;;12.47;64.81
17072;BME280;7731;50.720;6.912;2023-03-25T09:50:40;99061.16;;;11.99;66.70
17072;BME280;7731;50.720;6.912;2023-03-25T09:53:27;99067.47;;;11.70;68.91
17072;BME280;7731;50.720;6.912;2023-03-25T09:56:00;99076.66;;;11.86;69.23
17072;BME280;7731;50.720;6.912;2023-03-25T09:58:40;99067.34;;;11.96;66.60
17072;BME280;7731;50.720;6.912;2023-03-25T10:01:36;99059.38;;;13.59;60.83
17072;BME280;7731;50.720;6.912;2023-03-25T10:07:40;99061.47;;;12.88;61.38
17072;BME280;7731;50.720;6.912;2023-03-25T10:10:26;99074.47;;;12.86;62.89
17072;BME280;7731;50.720;6.912;2023-03-25T10:13:10;99069.16;;;12.65;63.51
17072;BME280;7731;50.720;6.912;2023-03-25T10:15:55;99092.00;;;11.50;70.93
17072;BME280;7731;50.720;6.912;2023-03-25T10:18:55;99076.16;;;11.80;74.88
17072;BME280;7731;50.720;6.912;2023-03-25T10:21:37;99104.56;;;11.42;75.09
17072;BME280;7731;50.720;6.912;2023-03-25T10:24:20;99100.88;;;11.33;79.32
17072;BME280;7731;50.720;6.912;2023-03-25T10:26:57;99093.25;;;12.06;78.14
17072;BME280;7731;50.720;6.912;2023-03-25T10:29:36;99091.88;;;14.05;64.55
17072;BME280;7731;50.720;6.912;2023-03-25T10:32:15;99074.88;;;14.66;57.93
17072;BME280;7731;50.720;6.912;2023-03-25T10:34:50;99083.38;;;15.69;54.60
17072;BME280;7731;50.720;6.912;2023-03-25T10:37:27;99085.00;;;15.60;52.61
17072;BME280;7731;50.720;6.912;2023-03-25T10:40:15;99080.28;;;16.81;48.87
17072;BME280;7731;50.720;6.912;2023-03-25T10:43:10;99097.22;;;15.99;50.86
17072;BME280;7731;50.720;6.912;2023-03-25T10:45:45;99091.41;;;16.54;48.11
17072;BME280;7731;50.720;6.912;2023-03-25T10:48:22;99089.66;;;15.76;49.75
17072;BME280;7731;50.720;6.912;2023-03-25T10:51:03;99087.72;;;15.59;51.25
17072;BME280;7731;50.720;6.912;2023-03-25T10:53:37;99085.41;;;17.56;49.22
17072;BME280;7731;50.720;6.912;2023-03-25T10:56:15;99077.72;;;17.09;48.82
17072;BME280;7731;50.720;6.912;2023-03-25T10:58:51;99088.72;;;16.36;50.71
17072;BME280;7731;50.720;6.912;2023-03-25T11:01:34;99080.28;;;16.81;50.23
17072;BME280;7731;50.720;6.912;2023-03-25T11:04:12;99079.91;;;15.89;50.47
17072;BME280;7731;50.720;6.912;2023-03-25T11:06:46;99089.81;;;15.14;53.69
17072;BME280;7731;50.720;6.912;2023-03-25T11:09:24;99089.94;;;14.40;57.16
17072;BME280;7731;50.720;6.912;2023-03-25T11:12:04;99096.38;;;14.45;56.67
17072;BME280;7731;50.720;6.912;2023-03-25T11:14:38;99085.66;;;15.02;56.15
17072;BME280;7731;50.720;6.912;2023-03-25T11:17:15;99089.44;;;14.88;52.65
17072;BME280;7731;50.720;6.912;2023-03-25T11:19:58;99079.41;;;16.53;48.81
17072;BME280;7731;50.720;6.912;2023-03-25T11:22:36;99077.38;;;16.47;49.56
17072;BME280;7731;50.720;6.912;2023-03-25T11:25:17;99086.66;;;17.06;47.78
17072;BME280;7731;50.720;6.912;2023-03-25T11:27:58;99086.56;;;15.32;49.69
17072;BME280;7731;50.720;6.912;2023-03-25T11:30:32;99091.44;;;13.56;55.80
17072;BME280;7731;50.720;6.912;2023-03-25T11:33:05;99094.84;;;13.89;58.57
17072;BME280;7731;50.720;6.912;2023-03-25T11:35:42;99092.38;;;13.99;54.99
17072;BME280;7731;50.720;6.912;2023-03-25T11:38:22;99081.50;;;15.91;51.22
17072;BME280;7731;50.720;6.912;2023-03-25T11:40:55;99084.94;;;15.31;52.35
17072;BME280;7731;50.720;6.912;2023-03-25T11:43:33;99070.72;;;15.15;52.28
17072;BME280;7731;50.720;6.912;2023-03-25T11:46:11;99061.63;;;16.01;49.93
17072;BME280;7731;50.720;6.912;2023-03-25T11:48:45;99067.69;;;15.61;49.46
17072;BME280;7731;50.720;6.912;2023-03-25T11:51:22;99048.28;;;15.26;48.71
17072;BME280;7731;50.720;6.912;2023-03-25T11:53:58;99063.47;;;14.69;51.53
17072;BME280;7731;50.720;6.912;2023-03-25T11:56:34;99063.16;;;14.62;52.53
17072;BME280;7731;50.720;6.912;2023-03-25T11:59:21;99072.63;;;13.98;56.46
17072;BME280;7731;50.720;6.912;2023-03-25T12:02:08;99086.84;;;13.71;57.41
17072;BME280;7731;50.720;6.912;2023-03-25T12:05:00;99085.06;;;14.04;56.57
17072;BME280;7731;50.720;6.912;2023-03-25T12:07:43;99089.47;;;14.56;56.22
17072;BME280;7731;50.720;6.912;2023-03-25T12:10:19;99088.81;;;14.75;54.17
17072;BME280;7731;50.720;6.912;2023-03-25T12:12:57;99085.06;;;14.46;52.47
17072;BME280;7731;50.720;6.912;2023-03-25T12:15:44;99106.69;;;14.24;55.69
17072;BME280;7731;50.720;6.912;2023-03-25T12:18:52;99087.09;;;13.57;56.83
17072;BME280;7731;50.720;6.912;2023-03-25T12:21:56;99087.56;;;13.28;59.14
17072;BME280;7731;50.720;6.912;2023-03-25T12:25:01;99086.59;;;13.63;58.18
17072;BME280;7731;50.720;6.912;2023-03-25T12:27:51;99089.91;;;13.31;60.00
17072;BME280;7731;50.720;6.912;2023-03-25T12:30:47;99080.75;;;13.93;56.21
17072;BME280;7731;50.720;6.912;2023-03-25T12:33:47;99074.97;;;14.86;54.95
17072;BME280;7731;50.720;6.912;2023-03-25T12:36:36;99078.31;;;14.34;55.49
17072;BME280;7731;50.720;6.912;2023-03-25T12:39:25;99056.47;;;13.96;55.65
17072;BME280;7731;50.720;6.912;2023-03-25T12:42:27;99062.94;;;13.58;55.54
17072;BME280;7731;50.720;6.912;2023-03-25T12:45:19;99067.56;;;13.75;55.31
17072;BME280;7731;50.720;6.912;2023-03-25T12:48:03;99059.22;;;13.17;55.68
17072;BME280;7731;50.720;6.912;2023-03-25T12:50:52;99074.22;;;13.46;54.97
17072;BME280;7731;50.720;6.912;2023-03-25T12:53:52;99058.38;;;13.39;55.72
17072;BME280;7731;50.720;6.912;2023-03-25T12:56:47;99061.03;;;13.71;54.71
17072;BME280;7731;50.720;6.912;2023-03-25T12:59:45;99048.47;;;13.99;55.48
17072;BME280;7731;50.720;6.912;2023-03-25T13:02:51;99052.81;;;14.20;56.23
17072;BME280;7731;50.720;6.912;2023-03-25T13:05:39;99055.22;;;14.11;52.32
17072;BME280;7731;50.720;6.912;2023-03-25T13:08:20;99060.28;;;14.02;53.32
17072;BME280;7731;50.720;6.912;2023-03-25T13:11:02;99041.84;;;14.06;52.26
17072;BME280;7731;50.720;6.912;2023-03-25T13:13:38;99025.84;;;13.59;52.36
17072;BME280;7731;50.720;6.912;2023-03-25T13:16:15;99022.56;;;13.57;52.79
17072;BME280;7731;50.720;6.912;2023-03-25T13:19:00;99017.69;;;13.75;53.38
17072;BME280;7731;50.720;6.912;2023-03-25T13:21:38;99020.13;;;14.30;51.78
17072;BME280;7731;50.720;6.912;2023-03-25T13:24:15;99005.22;;;14.43;47.28
17072;BME280;7731;50.720;6.912;2023-03-25T13:26:49;98996.34;;;14.36;47.16
17072;BME280;7731;50.720;6.912;2023-03-25T13:29:29;99004.78;;;15.00;46.18
17072;BME280;7731;50.720;6.912;2023-03-25T13:32:07;99007.16;;;15.32;42.03
17072;BME280;7731;50.720;6.912;2023-03-25T13:34:44;99015.22;;;14.58;43.99
17072;BME280;7731;50.720;6.912;2023-03-25T13:37:27;99012.91;;;14.86;44.08
17072;BME280;7731;50.720;6.912;2023-03-25T13:40:21;99001.00;;;14.42;46.79
17072;BME280;7731;50.720;6.912;2023-03-25T13:42:58;98998.56;;;14.41;47.10
17072;BME280;7731;50.720;6.912;2023-03-25T13:45:43;98971.06;;;15.11;47.54
17072;BME280;7731;50.720;6.912;2023-03-25T13:48:19;98978.13;;;14.99;45.81
17072;BME280;7731;50.720;6.912;2023-03-25T13:50:53;98984.63;;;14.32;46.94
17072;BME280;7731;50.720;6.912;2023-03-25T13:53:35;98999.75;;;14.37;48.15
17072;BME280;7731;50.720;6.912;2023-03-25T13:56:49;99013.81;;;14.02;49.69
17072;BME280;7731;50.720;6.912;2023-03-25T14:00:06;99023.44;;;13.46;52.48
17072;BME280;7731;50.720;6.912;2023-03-25T14:03:24;99027.34;;;12.95;53.55
17072;BME280;7731;50.720;6.912;2023-03-25T14:06:35;99032.06;;;12.90;52.93
17072;BME280;7731;50.720;6.912;2023-03-25T14:10:06;99102.59;;;12.31;63.02